Toyofujimaru No.2 — 7JDI — position and weather

sailwx.info

Track history (hours):
 
Tides and Currents Weather Stations Pressure Air Temp Water Temp Dewpoint Dewpoint Depression Visibility Wind Speed Wind Dir Waves Ship Positions

Toyofujimaru No.2

Last reported at 2014-Oct-20 13:07 UTC. Time now 2014-Oct-23 22:05 UTC.
Position N 20°34' E 113°18'.

Length 165 m; draft 6.5 m.

Type: Cargo ship. MMSI: 432667000.

Date/timePositionNaut miles runAvg speedWind from/ knotsBaromVisibWave heightAir tempDewpointWater temp
2014-Oct-20 13:07N 20°34' E 113°18'10220.2
2014-Oct-20 08:04N 22°07' E 114°06'710.9
2014-Oct-20 07:24N 22°13' E 114°10'8 8.9
2014-Oct-20 06:33N 22°19' E 114°06'1 0.2
2014-Oct-20 00:23N 22°20' E 114°07'142 8.3
2014-Oct-19 07:17N 22°40' E 116°39'  
2014-Oct-11 08:30N 35°07' E 139°43'1112.0
2014-Oct-11 07:33N 35°18' E 139°44'9 9.4
2014-Oct-11 06:33N 35°27' E 139°41'0 0.0
2014-Oct-11 05:33N 35°27' E 139°41'0 0.0
2014-Oct-11 04:27N 35°27' E 139°41'0 0.0
2014-Oct-11 03:33N 35°27' E 139°41'0 0.0
2014-Oct-11 02:33N 35°27' E 139°41'0 0.0
2014-Oct-11 01:33N 35°27' E 139°41'0 0.0
2014-Oct-11 00:33N 35°27' E 139°41'0 0.0
2014-Oct-10 23:33N 35°27' E 139°41'0 0.0
2014-Oct-10 22:33N 35°27' E 139°41'2 2.3
2014-Oct-10 21:33N 35°25' E 139°43'1111.4
2014-Oct-10 20:33N 35°15' E 139°47'1312.6
2014-Oct-10 19:33N 35°02' E 139°43'  
Track history (hours):
 
Tides and Currents Weather Stations Pressure Air Temp Water Temp Dewpoint Dewpoint Depression Visibility Wind Speed Wind Dir Waves Ship Positions

Toyofujimaru No.2

Last reported at 2014-Oct-20 13:07 UTC. Time now 2014-Oct-23 22:05 UTC.
Position N 20°34' E 113°18'.

Length 165 m; draft 6.5 m.

Type: Cargo ship. MMSI: 432667000.

Date/timePositionNaut miles runAvg speedWind from/ knotsBaromVisibWave heightAir tempDewpointWater temp
2014-Oct-20 13:07N 20°34' E 113°18'10220.2
2014-Oct-20 08:04N 22°07' E 114°06'710.9
2014-Oct-20 07:24N 22°13' E 114°10'8 8.9
2014-Oct-20 06:33N 22°19' E 114°06'1 0.2
2014-Oct-20 00:23N 22°20' E 114°07'142 8.3
2014-Oct-19 07:17N 22°40' E 116°39'  
2014-Oct-11 08:30N 35°07' E 139°43'1112.0
2014-Oct-11 07:33N 35°18' E 139°44'9 9.4
2014-Oct-11 06:33N 35°27' E 139°41'0 0.0
2014-Oct-11 05:33N 35°27' E 139°41'0 0.0
2014-Oct-11 04:27N 35°27' E 139°41'0 0.0
2014-Oct-11 03:33N 35°27' E 139°41'0 0.0
2014-Oct-11 02:33N 35°27' E 139°41'0 0.0
2014-Oct-11 01:33N 35°27' E 139°41'0 0.0
2014-Oct-11 00:33N 35°27' E 139°41'0 0.0
2014-Oct-10 23:33N 35°27' E 139°41'0 0.0
2014-Oct-10 22:33N 35°27' E 139°41'2 2.3
2014-Oct-10 21:33N 35°25' E 139°43'1111.4
2014-Oct-10 20:33N 35°15' E 139°47'1312.6
2014-Oct-10 19:33N 35°02' E 139°43'  

Dump ship's entire track history